Time;durP1;ratioP1;P1;durP2;ratioP2;P2;SDS_P1;SDS_P2;PMS_P1;PMS_P2;Temp;Humidity;BMP_temperature;BMP_pressure;BME280_temperature;BME280_humidity;BME280_pressure;Samples;Min_cycle;Max_cycle;Signal;HPM_P1;HPM_P2
2023/03/28 00:01:52;;;;;;;9.18;2.42;;;;;;;;;;5035074;28;20032;-25
2023/03/28 00:04:21;;;;;;;4.70;3.10;;;;;;;;;;5034757;28;20087;-23
2023/03/28 00:06:52;;;;;;;5.43;2.30;;;;;;;;;;5035015;28;20087;-23
2023/03/28 00:09:18;;;;;;;6.45;2.15;;;;;;;;;;5035326;28;20075;-24
2023/03/28 00:11:44;;;;;;;5.00;2.38;;;;;;;;;;5034815;28;20522;-28
2023/03/28 00:14:13;;;;;;;3.85;2.33;;;;;;;;;;5034908;28;20045;-27
2023/03/28 00:16:39;;;;;;;7.03;2.95;;;;;;;;;;5034850;28;20464;-24
2023/03/28 00:19:07;;;;;;;4.47;2.40;;;;;;;;;;5035077;28;20079;-23
2023/03/28 00:21:35;;;;;;;4.00;1.95;;;;;;;;;;5035064;28;20036;-26
2023/03/28 00:24:03;;;;;;;3.25;2.47;;;;;;;;;;5034599;28;20532;-24
2023/03/28 00:26:31;;;;;;;4.07;2.50;;;;;;;;;;5034674;28;20026;-25
2023/03/28 00:28:57;;;;;;;6.50;1.92;;;;;;;;;;5035011;28;20368;-23
2023/03/28 00:31:25;;;;;;;4.15;2.50;;;;;;;;;;5034694;28;20025;-28
2023/03/28 00:33:52;;;;;;;7.28;2.40;;;;;;;;;;5034585;28;20037;-22
2023/03/28 00:36:21;;;;;;;2.92;2.05;;;;;;;;;;5034851;28;20026;-24
2023/03/28 00:38:48;;;;;;;3.25;1.95;;;;;;;;;;5034532;28;20050;-22
2023/03/28 00:41:17;;;;;;;5.03;2.17;;;;;;;;;;5034434;28;20035;-23
2023/03/28 00:43:44;;;;;;;6.22;2.22;;;;;;;;;;5034457;28;20025;-24
2023/03/28 00:46:13;;;;;;;4.43;2.95;;;;;;;;;;5034213;28;20029;-23
2023/03/28 00:48:43;;;;;;;6.45;1.88;;;;;;;;;;5034387;28;20079;-24
2023/03/28 00:51:09;;;;;;;4.82;2.03;;;;;;;;;;5035054;28;20103;-22
2023/03/28 00:53:36;;;;;;;4.13;2.33;;;;;;;;;;5034683;28;20105;-23
2023/03/28 00:56:05;;;;;;;5.60;2.45;;;;;;;;;;5034145;28;20112;-22
2023/03/28 00:58:34;;;;;;;4.03;2.60;;;;;;;;;;5034323;28;20040;-22
2023/03/28 01:01:00;;;;;;;4.40;2.13;;;;;;;;;;5034456;28;20041;-24
2023/03/28 01:03:32;;;;;;;9.85;2.40;;;;;;;;;;5034471;28;20030;-23
2023/03/28 01:06:00;;;;;;;4.18;2.10;;;;;;;;;;5034164;28;20075;-25
2023/03/28 01:08:29;;;;;;;4.70;2.03;;;;;;;;;;5034557;28;20040;-22
2023/03/28 01:10:55;;;;;;;5.78;1.63;;;;;;;;;;5034185;28;20040;-23
2023/03/28 01:13:25;;;;;;;2.72;1.90;;;;;;;;;;5033834;28;20021;-23
2023/03/28 01:15:51;;;;;;;6.22;2.53;;;;;;;;;;5034558;28;20352;-22
2023/03/28 01:18:21;;;;;;;4.55;2.10;;;;;;;;;;5034241;28;20033;-25
2023/03/28 01:20:59;;;;;;;3.70;2.10;;;;;;;;;;5034187;28;20108;-22
2023/03/28 01:23:34;;;;;;;9.40;2.10;;;;;;;;;;5033819;28;20026;-26
2023/03/28 01:26:37;;;;;;;2.75;1.73;;;;;;;;;;5034522;28;20017;-23
2023/03/28 01:29:09;;;;;;;5.45;1.95;;;;;;;;;;4993187;28;20065;-23
2023/03/28 01:31:35;;;;;;;2.90;1.88;;;;;;;;;;5010234;28;20464;-24
2023/03/28 01:34:16;;;;;;;2.75;1.95;;;;;;;;;;5033792;28;20033;-28
2023/03/28 01:37:05;;;;;;;8.88;2.17;;;;;;;;;;5033616;28;20029;-23
2023/03/28 01:39:43;;;;;;;3.72;1.98;;;;;;;;;;5034055;28;20100;-27
2023/03/28 01:42:12;;;;;;;7.40;2.25;;;;;;;;;;5033976;28;20396;-23
2023/03/28 01:44:48;;;;;;;4.00;2.25;;;;;;;;;;5033803;28;20032;-23
2023/03/28 01:47:30;;;;;;;3.40;2.10;;;;;;;;;;5016499;28;20091;-22
2023/03/28 01:49:56;;;;;;;4.97;2.22;;;;;;;;;;5033812;28;20017;-26
2023/03/28 01:52:26;;;;;;;5.63;2.33;;;;;;;;;;5034112;28;20399;-23
2023/03/28 01:54:57;;;;;;;5.15;2.25;;;;;;;;;;5036574;28;20029;-22
2023/03/28 01:57:26;;;;;;;3.03;2.03;;;;;;;;;;5037699;28;20412;-24
2023/03/28 02:00:00;;;;;;;2.78;2.15;;;;;;;;;;5037651;28;20025;-23
2023/03/28 02:02:29;;;;;;;3.13;2.10;;;;;;;;;;5037719;28;20474;-25
2023/03/28 02:04:56;;;;;;;3.45;2.17;;;;;;;;;;5037343;28;20055;-23
2023/03/28 02:07:23;;;;;;;3.80;2.00;;;;;;;;;;5037536;28;20049;-22
2023/03/28 02:09:51;;;;;;;2.85;2.33;;;;;;;;;;5037239;28;20104;-24
2023/03/28 02:12:22;;;;;;;3.30;2.55;;;;;;;;;;5036999;28;20107;-23
2023/03/28 02:14:51;;;;;;;2.47;1.98;;;;;;;;;;5037079;28;20151;-22
2023/03/28 02:17:18;;;;;;;2.83;1.70;;;;;;;;;;5037329;28;20159;-26
2023/03/28 02:19:47;;;;;;;2.90;1.92;;;;;;;;;;5036963;28;20029;-25
2023/03/28 02:22:19;;;;;;;3.35;1.58;;;;;;;;;;5036862;28;20026;-22
2023/03/28 02:24:50;;;;;;;2.53;1.88;;;;;;;;;;5036853;28;20030;-22
2023/03/28 02:27:16;;;;;;;2.45;2.05;;;;;;;;;;5037200;28;20017;-23
2023/03/28 02:29:43;;;;;;;8.88;3.65;;;;;;;;;;5036883;28;20100;-22
2023/03/28 02:32:09;;;;;;;1.73;1.63;;;;;;;;;;5037031;28;20105;-23
2023/03/28 02:34:35;;;;;;;3.25;2.20;;;;;;;;;;5019316;28;20025;-22
2023/03/28 02:37:19;;;;;;;3.97;1.92;;;;;;;;;;5036999;28;20025;-28
2023/03/28 02:39:47;;;;;;;4.88;1.88;;;;;;;;;;5037014;28;20403;-23
2023/03/28 02:42:14;;;;;;;7.70;2.03;;;;;;;;;;5036784;28;20041;-22
2023/03/28 02:44:40;;;;;;;4.75;2.20;;;;;;;;;;5036809;28;20133;-23
2023/03/28 02:47:06;;;;;;;3.30;2.17;;;;;;;;;;5036529;28;20548;-24
2023/03/28 02:49:44;;;;;;;3.28;2.40;;;;;;;;;;5036789;28;20021;-23
2023/03/28 02:52:19;;;;;;;2.60;2.03;;;;;;;;;;5036383;28;20029;-22
2023/03/28 02:54:54;;;;;;;2.78;2.08;;;;;;;;;;5036412;28;20144;-22
2023/03/28 02:57:30;;;;;;;4.35;2.15;;;;;;;;;;5036344;28;20026;-22
2023/03/28 03:00:11;;;;;;;5.90;2.15;;;;;;;;;;5036899;28;20444;-23
2023/03/28 03:02:38;;;;;;;4.47;1.95;;;;;;;;;;5036425;28;20029;-22
2023/03/28 03:05:04;;;;;;;2.40;1.60;;;;;;;;;;5034919;28;20518;-22
2023/03/28 03:07:31;;;;;;;5.82;2.42;;;;;;;;;;5036114;28;20104;-22
2023/03/28 03:09:57;;;;;;;2.40;1.80;;;;;;;;;;5036067;28;20037;-25
2023/03/28 03:12:24;;;;;;;2.63;1.92;;;;;;;;;;5036249;28;20029;-23
2023/03/28 03:14:50;;;;;;;4.13;1.80;;;;;;;;;;5036288;28;20049;-24
2023/03/28 03:17:20;;;;;;;4.72;2.58;;;;;;;;;;5035967;28;20022;-23
2023/03/28 03:19:46;;;;;;;2.35;1.88;;;;;;;;;;5036141;28;20087;-24
2023/03/28 03:22:12;;;;;;;6.38;2.20;;;;;;;;;;5035995;28;20037;-23
2023/03/28 03:24:38;;;;;;;3.75;2.17;;;;;;;;;;5035990;28;20457;-23
2023/03/28 03:27:04;;;;;;;5.13;2.45;;;;;;;;;;5035791;28;20101;-27
2023/03/28 03:29:30;;;;;;;3.13;2.40;;;;;;;;;;5035960;28;20104;-22
2023/03/28 03:31:57;;;;;;;4.75;1.85;;;;;;;;;;5036109;28;20022;-23
2023/03/28 03:34:23;;;;;;;4.55;2.17;;;;;;;;;;5035542;28;20057;-22
2023/03/28 03:36:51;;;;;;;2.95;1.92;;;;;;;;;;5035838;28;20025;-22
2023/03/28 03:39:18;;;;;;;3.58;1.92;;;;;;;;;;5036301;28;20041;-24
2023/03/28 03:41:44;;;;;;;2.80;1.63;;;;;;;;;;5035660;28;20033;-22
2023/03/28 03:44:10;;;;;;;2.78;1.70;;;;;;;;;;5035384;28;20033;-25
2023/03/28 03:46:36;;;;;;;4.85;2.00;;;;;;;;;;5035656;28;20087;-23
2023/03/28 03:49:03;;;;;;;3.28;2.10;;;;;;;;;;5035622;28;20025;-23
2023/03/28 03:51:29;;;;;;;3.95;1.98;;;;;;;;;;5035298;28;20033;-22
2023/03/28 03:53:57;;;;;;;3.03;1.70;;;;;;;;;;5035100;28;20100;-22
2023/03/28 03:56:23;;;;;;;4.70;2.00;;;;;;;;;;5035148;28;20029;-22
2023/03/28 03:58:49;;;;;;;2.75;1.73;;;;;;;;;;5035172;28;20087;-23
2023/03/28 04:01:15;;;;;;;6.45;1.92;;;;;;;;;;5035371;28;20064;-23
2023/03/28 04:03:42;;;;;;;3.28;1.85;;;;;;;;;;5034796;28;20026;-23
2023/03/28 04:06:08;;;;;;;2.28;1.80;;;;;;;;;;5034865;28;20069;-22
2023/03/28 04:08:35;;;;;;;4.63;2.13;;;;;;;;;;5035202;28;20040;-25
2023/03/28 04:11:01;;;;;;;4.38;2.08;;;;;;;;;;5034907;28;20021;-25
2023/03/28 04:13:27;;;;;;;4.25;2.08;;;;;;;;;;5034891;28;20032;-22
2023/03/28 04:15:53;;;;;;;2.38;1.80;;;;;;;;;;5034715;28;20026;-28
2023/03/28 04:18:19;;;;;;;2.22;1.98;;;;;;;;;;5034433;28;20040;-22
2023/03/28 04:20:56;;;;;;;2.80;1.65;;;;;;;;;;5035364;28;20100;-23
2023/03/28 04:23:25;;;;;;;3.25;2.20;;;;;;;;;;5034443;28;20029;-21
2023/03/28 04:25:57;;;;;;;3.35;1.92;;;;;;;;;;5034826;28;20045;-22
2023/03/28 04:28:24;;;;;;;3.33;2.72;;;;;;;;;;5034899;28;20037;-25
2023/03/28 04:30:57;;;;;;;4.70;1.80;;;;;;;;;;5034759;28;20030;-22
2023/03/28 04:33:32;;;;;;;3.70;1.80;;;;;;;;;;5034471;28;20108;-24
2023/03/28 04:36:01;;;;;;;2.60;1.40;;;;;;;;;;5034710;28;20360;-23
2023/03/28 04:38:30;;;;;;;1.73;1.63;;;;;;;;;;5034311;28;20025;-22
2023/03/28 04:40:57;;;;;;;3.20;2.17;;;;;;;;;;5034588;28;20445;-25
2023/03/28 04:43:29;;;;;;;3.72;1.92;;;;;;;;;;5034311;28;20450;-24
2023/03/28 04:45:55;;;;;;;4.65;2.42;;;;;;;;;;5034442;28;20025;-22
2023/03/28 04:48:22;;;;;;;3.85;1.67;;;;;;;;;;5034440;28;20028;-22
2023/03/28 04:50:49;;;;;;;4.30;1.70;;;;;;;;;;5034253;28;20030;-23
2023/03/28 04:53:16;;;;;;;3.55;1.77;;;;;;;;;;5034318;28;20091;-24
2023/03/28 04:55:47;;;;;;;1.58;1.48;;;;;;;;;;5034540;28;20417;-25
2023/03/28 04:58:14;;;;;;;3.60;2.13;;;;;;;;;;5034576;28;20480;-24
2023/03/28 05:00:41;;;;;;;5.15;2.10;;;;;;;;;;5034211;28;20027;-23
2023/03/28 05:03:12;;;;;;;4.50;2.47;;;;;;;;;;5034274;28;20072;-24
2023/03/28 05:05:38;;;;;;;4.82;2.20;;;;;;;;;;5034045;28;20103;-23
2023/03/28 05:08:04;;;;;;;4.40;1.85;;;;;;;;;;5034080;28;20461;-22
2023/03/28 05:10:30;;;;;;;5.20;2.05;;;;;;;;;;5034264;28;20109;-22
2023/03/28 05:12:57;;;;;;;3.63;2.10;;;;;;;;;;5034159;28;20029;-22
2023/03/28 05:15:23;;;;;;;4.15;1.85;;;;;;;;;;5034476;28;20334;-23
2023/03/28 05:17:49;;;;;;;3.55;1.85;;;;;;;;;;5034089;28;20025;-25
2023/03/28 05:20:17;;;;;;;5.28;2.10;;;;;;;;;;5034094;28;20065;-24
2023/03/28 05:22:43;;;;;;;8.25;2.10;;;;;;;;;;5033790;28;20526;-23
2023/03/28 05:25:10;;;;;;;6.03;3.58;;;;;;;;;;5034201;28;20025;-23
2023/03/28 05:27:37;;;;;;;4.55;2.47;;;;;;;;;;5034251;28;20029;-22
2023/03/28 05:30:07;;;;;;;4.57;2.83;;;;;;;;;;5037120;28;20060;-25
2023/03/28 05:32:33;;;;;;;3.58;1.77;;;;;;;;;;5037841;28;20017;-23
2023/03/28 05:34:59;;;;;;;5.35;3.20;;;;;;;;;;5020020;28;20032;-22
2023/03/28 05:37:25;;;;;;;12.18;2.08;;;;;;;;;;5037707;28;20104;-23
2023/03/28 05:39:52;;;;;;;5.50;2.67;;;;;;;;;;5037561;28;20029;-22
2023/03/28 05:42:18;;;;;;;7.10;2.47;;;;;;;;;;5037665;28;20381;-24
2023/03/28 05:44:44;;;;;;;5.00;2.13;;;;;;;;;;5037275;28;20515;-25
2023/03/28 05:47:10;;;;;;;8.95;2.58;;;;;;;;;;5037350;28;20070;-29
2023/03/28 05:49:36;;;;;;;3.42;2.08;;;;;;;;;;5037022;28;20440;-23
2023/03/28 05:52:02;;;;;;;5.80;2.17;;;;;;;;;;5037099;28;20076;-24
2023/03/28 05:54:28;;;;;;;7.00;2.10;;;;;;;;;;5037339;28;20044;-23
2023/03/28 05:56:54;;;;;;;3.78;2.15;;;;;;;;;;5037050;28;20028;-27
2023/03/28 05:59:23;;;;;;;5.80;2.10;;;;;;;;;;5037209;28;20086;-22
2023/03/28 06:01:51;;;;;;;13.65;3.97;;;;;;;;;;5037116;28;20041;-23
2023/03/28 06:04:18;;;;;;;4.72;2.33;;;;;;;;;;5037488;28;20040;-22
2023/03/28 06:06:47;;;;;;;5.50;2.10;;;;;;;;;;5037192;28;20029;-24
2023/03/28 06:09:14;;;;;;;7.20;2.33;;;;;;;;;;5036857;28;20033;-24
2023/03/28 06:11:40;;;;;;;5.60;2.55;;;;;;;;;;5036763;28;20100;-22
2023/03/28 06:14:06;;;;;;;3.95;2.20;;;;;;;;;;5036705;28;20026;-25
2023/03/28 06:16:33;;;;;;;7.45;2.30;;;;;;;;;;5036862;28;20082;-23
2023/03/28 06:18:59;;;;;;;6.65;1.80;;;;;;;;;;5019401;28;20456;-22
2023/03/28 06:21:25;;;;;;;5.93;2.60;;;;;;;;;;5036787;28;20034;-22
2023/03/28 06:23:51;;;;;;;8.77;2.35;;;;;;;;;;5036645;28;20368;-24
2023/03/28 06:26:18;;;;;;;7.53;2.05;;;;;;;;;;5036824;28;20021;-23
2023/03/28 06:28:44;;;;;;;3.78;2.03;;;;;;;;;;5037025;28;20341;-22
2023/03/28 06:31:14;;;;;;;3.83;2.00;;;;;;;;;;5037221;28;20049;-24
2023/03/28 06:33:40;;;;;;;5.28;1.95;;;;;;;;;;5036484;28;20041;-24
2023/03/28 06:36:10;;;;;;;5.55;2.05;;;;;;;;;;5036636;28;20037;-22
2023/03/28 06:38:36;;;;;;;4.65;2.10;;;;;;;;;;5036779;28;20025;-22
2023/03/28 06:41:03;;;;;;;4.35;2.22;;;;;;;;;;5036433;28;20025;-24
2023/03/28 06:43:32;;;;;;;8.95;2.20;;;;;;;;;;5036095;28;20108;-23
2023/03/28 06:45:58;;;;;;;8.00;2.22;;;;;;;;;;5036550;28;20022;-23
2023/03/28 06:48:30;;;;;;;5.60;2.05;;;;;;;;;;5036115;28;20479;-22
2023/03/28 06:50:59;;;;;;;6.38;2.05;;;;;;;;;;5036361;28;20392;-23
2023/03/28 06:53:26;;;;;;;8.15;1.95;;;;;;;;;;5035953;28;20095;-26
2023/03/28 06:55:52;;;;;;;4.28;2.78;;;;;;;;;;5035912;28;20032;-25
2023/03/28 06:58:19;;;;;;;2.83;1.95;;;;;;;;;;5036437;28;20384;-27
2023/03/28 07:00:45;;;;;;;5.15;2.00;;;;;;;;;;5035751;28;20112;-25
2023/03/28 07:03:11;;;;;;;5.93;2.13;;;;;;;;;;5035656;28;20049;-22
2023/03/28 07:05:38;;;;;;;3.90;1.95;;;;;;;;;;5035526;28;20045;-22
2023/03/28 07:08:05;;;;;;;6.10;3.47;;;;;;;;;;5035890;28;20021;-22
2023/03/28 07:10:31;;;;;;;8.13;2.40;;;;;;;;;;5035758;28;20036;-22
2023/03/28 07:12:57;;;;;;;3.47;1.75;;;;;;;;;;5035560;28;20029;-23
2023/03/28 07:15:24;;;;;;;9.35;1.98;;;;;;;;;;5035577;28;20053;-22
2023/03/28 07:17:50;;;;;;;4.15;1.85;;;;;;;;;;5035816;28;20037;-23
2023/03/28 07:20:16;;;;;;;3.03;2.03;;;;;;;;;;5036050;28;20013;-23
2023/03/28 07:22:42;;;;;;;4.00;2.20;;;;;;;;;;5035358;28;20040;-28
2023/03/28 07:25:08;;;;;;;11.55;2.42;;;;;;;;;;5035452;28;20396;-23
2023/03/28 07:27:34;;;;;;;5.07;1.67;;;;;;;;;;5017875;28;20155;-25
2023/03/28 07:30:01;;;;;;;4.75;2.25;;;;;;;;;;5035663;28;20444;-25
2023/03/28 07:32:27;;;;;;;5.82;2.13;;;;;;;;;;5035517;28;20383;-26
2023/03/28 07:34:53;;;;;;;5.60;2.47;;;;;;;;;;5035154;28;20029;-23
2023/03/28 07:37:19;;;;;;;7.18;1.77;;;;;;;;;;5035440;28;20033;-28
2023/03/28 07:39:46;;;;;;;11.73;3.25;;;;;;;;;;5035079;28;20030;-23
2023/03/28 07:42:14;;;;;;;2.88;1.60;;;;;;;;;;5035277;28;20087;-23
2023/03/28 07:44:40;;;;;;;3.70;2.20;;;;;;;;;;5035117;28;20029;-22
2023/03/28 07:47:07;;;;;;;3.45;2.20;;;;;;;;;;5034768;28;20021;-23
2023/03/28 07:49:33;;;;;;;6.32;2.30;;;;;;;;;;5035167;28;20025;-23
2023/03/28 07:51:59;;;;;;;6.28;2.42;;;;;;;;;;5017366;28;20365;-23
2023/03/28 07:54:27;;;;;;;9.05;2.50;;;;;;;;;;5034886;28;20022;-23
2023/03/28 07:56:53;;;;;;;3.92;1.80;;;;;;;;;;5035122;28;20017;-22
2023/03/28 07:59:19;;;;;;;5.22;2.13;;;;;;;;;;5034793;28;20104;-23
2023/03/28 08:01:46;;;;;;;7.00;2.15;;;;;;;;;;5034597;28;20029;-23
2023/03/28 08:04:13;;;;;;;4.28;2.30;;;;;;;;;;5017647;28;20334;-24
2023/03/28 08:06:39;;;;;;;6.20;2.45;;;;;;;;;;5034961;28;20033;-24
2023/03/28 08:09:06;;;;;;;4.75;1.88;;;;;;;;;;5034844;28;20352;-24
2023/03/28 08:11:33;;;;;;;10.48;2.95;;;;;;;;;;5034412;28;20040;-23
2023/03/28 08:14:00;;;;;;;7.82;2.65;;;;;;;;;;5034814;28;20403;-23
2023/03/28 08:16:26;;;;;;;5.15;1.77;;;;;;;;;;5034751;28;20107;-27
2023/03/28 08:18:53;;;;;;;7.47;2.30;;;;;;;;;;5035106;28;20033;-23
2023/03/28 08:21:19;;;;;;;4.57;2.40;;;;;;;;;;5034437;28;20064;-25
2023/03/28 08:23:45;;;;;;;5.68;2.13;;;;;;;;;;5034365;28;20018;-23
2023/03/28 08:26:11;;;;;;;7.10;2.17;;;;;;;;;;5034399;28;20051;-25
2023/03/28 08:28:38;;;;;;;6.20;2.15;;;;;;;;;;5034313;28;20104;-23
2023/03/28 08:31:12;;;;;;;16.65;3.00;;;;;;;;;;5034437;28;20033;-23
2023/03/28 08:33:39;;;;;;;7.30;2.15;;;;;;;;;;5034237;28;20113;-24
2023/03/28 08:36:05;;;;;;;10.43;2.25;;;;;;;;;;5034513;28;20051;-23
2023/03/28 08:38:31;;;;;;;6.60;2.17;;;;;;;;;;5034324;28;20104;-27
2023/03/28 08:41:01;;;;;;;11.43;2.45;;;;;;;;;;5034378;28;20056;-24
2023/03/28 08:43:33;;;;;;;10.27;2.40;;;;;;;;;;5034202;28;20104;-23
2023/03/28 08:46:00;;;;;;;6.90;2.00;;;;;;;;;;5035377;28;20026;-22
2023/03/28 08:48:44;;;;;;;9.32;2.40;;;;;;;;;;5034241;28;20021;-24
2023/03/28 08:51:30;;;;;;;4.32;1.92;;;;;;;;;;5034325;28;20537;-23
2023/03/28 08:54:11;;;;;;;2.72;1.80;;;;;;;;;;5034414;28;20030;-23
2023/03/28 08:56:49;;;;;;;6.45;2.13;;;;;;;;;;5034484;28;20041;-22
2023/03/28 08:59:17;;;;;;;9.13;2.33;;;;;;;;;;5034265;28;20029;-23
2023/03/28 09:01:43;;;;;;;11.15;2.28;;;;;;;;;;5034211;28;20029;-23
2023/03/28 09:04:26;;;;;;;9.73;2.35;;;;;;;;;;5037669;28;20034;-24
2023/03/28 09:06:56;;;;;;;6.68;2.38;;;;;;;;;;4999173;28;20349;-25
2023/03/28 09:09:34;;;;;;;9.20;2.67;;;;;;;;;;4998847;28;20339;-25
2023/03/28 09:12:19;;;;;;;7.38;2.58;;;;;;;;;;4998972;28;20358;-26
2023/03/28 09:14:51;;;;;;;7.70;2.38;;;;;;;;;;4997870;28;20137;-23
2023/03/28 09:17:29;;;;;;;5.82;2.72;;;;;;;;;;4998699;28;20473;-25
2023/03/28 09:20:10;;;;;;;11.18;3.03;;;;;;;;;;4998651;28;20109;-23
2023/03/28 09:22:55;;;;;;;13.27;3.28;;;;;;;;;;4998776;28;20026;-26
2023/03/28 09:25:39;;;;;;;6.38;2.22;;;;;;;;;;4998735;28;20110;-24
2023/03/28 09:28:14;;;;;;;8.65;2.38;;;;;;;;;;4998835;28;20045;-28
2023/03/28 09:30:43;;;;;;;6.82;2.58;;;;;;;;;;4998130;28;20026;-24
2023/03/28 09:33:12;;;;;;;13.05;4.32;;;;;;;;;;4998081;28;20352;-26
2023/03/28 09:35:38;;;;;;;11.77;2.28;;;;;;;;;;4998462;28;20030;-23
2023/03/28 09:38:31;;;;;;;3.80;2.10;;;;;;;;;;4998168;28;20433;-24
2023/03/28 09:40:58;;;;;;;5.22;1.88;;;;;;;;;;4996194;28;20092;-23
2023/03/28 09:43:30;;;;;;;6.45;1.73;;;;;;;;;;4998212;28;20475;-28
2023/03/28 09:46:01;;;;;;;4.97;2.08;;;;;;;;;;4998195;28;20354;-34
2023/03/28 09:48:27;;;;;;;;;;;;;;;;;;4998825;28;20350;-23
2023/03/28 09:50:54;;;;;;;5.57;2.17;;;;;;;;;;4998359;28;19913;-24
2023/03/28 09:53:30;;;;;;;10.45;2.20;;;;;;;;;;4998372;28;20426;-23
2023/03/28 09:56:05;;;;;;;4.00;2.72;;;;;;;;;;4998018;28;20026;-23
2023/03/28 09:58:46;;;;;;;6.25;1.98;;;;;;;;;;4997590;28;20050;-24
2023/03/28 10:01:31;;;;;;;13.32;2.55;;;;;;;;;;4997540;28;20315;-26
2023/03/28 10:03:58;;;;;;;3.40;1.73;;;;;;;;;;4997337;28;20037;-24
2023/03/28 10:06:28;;;;;;;8.68;2.60;;;;;;;;;;5033498;28;20208;-25
2023/03/28 10:09:13;;;;;;;14.18;2.58;;;;;;;;;;5036843;28;20136;-23
2023/03/28 10:11:53;;;;;;;6.00;2.33;;;;;;;;;;5036888;28;20021;-23
2023/03/28 10:14:31;;;;;;;9.05;2.55;;;;;;;;;;5036180;28;20044;-25
2023/03/28 10:17:01;;;;;;;10.50;2.88;;;;;;;;;;5037391;28;20022;-23
2023/03/28 10:19:31;;;;;;;6.43;2.17;;;;;;;;;;5036906;28;20093;-22
2023/03/28 10:21:57;;;;;;;4.38;2.28;;;;;;;;;;5036725;28;20444;-25
2023/03/28 10:24:24;;;;;;;4.43;2.15;;;;;;;;;;5036877;28;20475;-23
2023/03/28 10:26:51;;;;;;;5.80;2.13;;;;;;;;;;5036727;28;20483;-24
2023/03/28 10:29:17;;;;;;;5.63;2.22;;;;;;;;;;5036821;28;20034;-23
2023/03/28 10:31:48;;;;;;;5.50;1.83;;;;;;;;;;5036377;28;20056;-24
2023/03/28 10:34:25;;;;;;;5.60;2.42;;;;;;;;;;5036541;28;20029;-26
2023/03/28 10:36:51;;;;;;;5.95;2.08;;;;;;;;;;5036583;28;20376;-27
2023/03/28 10:39:24;;;;;;;4.80;1.90;;;;;;;;;;5019529;28;20033;-22
2023/03/28 10:41:54;;;;;;;4.00;1.80;;;;;;;;;;5036380;28;20021;-27
2023/03/28 10:44:26;;;;;;;5.53;2.58;;;;;;;;;;5036539;28;20025;-24
2023/03/28 10:46:52;;;;;;;12.68;3.53;;;;;;;;;;5036509;28;20032;-24
2023/03/28 10:49:19;;;;;;;10.43;2.83;;;;;;;;;;5036320;28;20017;-24
2023/03/28 10:51:45;;;;;;;4.28;2.50;;;;;;;;;;5036095;28;20040;-23
2023/03/28 10:54:21;;;;;;;10.75;2.25;;;;;;;;;;5036260;28;20087;-24
2023/03/28 10:56:54;;;;;;;8.10;2.67;;;;;;;;;;5036559;28;20082;-23
2023/03/28 10:59:23;;;;;;;4.15;1.80;;;;;;;;;;5036230;28;20473;-26
2023/03/28 11:02:08;;;;;;;4.43;3.10;;;;;;;;;;5036616;28;20041;-23
2023/03/28 11:04:50;;;;;;;6.93;2.35;;;;;;;;;;5036803;28;20050;-24
2023/03/28 11:07:28;;;;;;;7.15;2.50;;;;;;;;;;5036396;28;20025;-23
2023/03/28 11:10:00;;;;;;;9.73;3.17;;;;;;;;;;5036078;28;20025;-27
2023/03/28 11:12:46;;;;;;;24.42;4.63;;;;;;;;;;5035947;28;20112;-23
2023/03/28 11:15:31;;;;;;;8.70;2.33;;;;;;;;;;5036235;28;20029;-26
2023/03/28 11:18:06;;;;;;;4.80;1.92;;;;;;;;;;5036560;28;20120;-23
2023/03/28 11:20:44;;;;;;;12.35;2.53;;;;;;;;;;5036113;28;20104;-25
2023/03/28 11:23:30;;;;;;;9.00;2.83;;;;;;;;;;5035831;28;20029;-23
2023/03/28 11:25:56;;;;;;;6.32;1.60;;;;;;;;;;5034793;28;20117;-23
2023/03/28 11:28:34;;;;;;;8.05;3.30;;;;;;;;;;5035438;28;20060;-26
2023/03/28 11:31:00;;;;;;;11.07;2.33;;;;;;;;;;5035767;28;20017;-27
2023/03/28 11:33:33;;;;;;;10.13;2.58;;;;;;;;;;5035491;28;20056;-23
2023/03/28 11:36:03;;;;;;;10.05;2.35;;;;;;;;;;5035623;28;20204;-24
2023/03/28 11:38:33;;;;;;;10.20;2.50;;;;;;;;;;5035954;28;20025;-23
2023/03/28 11:41:03;;;;;;;4.85;2.13;;;;;;;;;;5018086;28;20658;-27
2023/03/28 11:43:34;;;;;;;4.97;2.07;;;;;;;;;;5035495;28;20388;-25
2023/03/28 11:46:19;;;;;;;9.50;2.33;;;;;;;;;;5035522;28;20064;-23
2023/03/28 11:48:54;;;;;;;6.88;1.75;;;;;;;;;;5035255;28;20100;-25
2023/03/28 11:51:23;;;;;;;7.63;2.10;;;;;;;;;;5035300;28;20026;-25
2023/03/28 11:53:53;;;;;;;10.32;2.67;;;;;;;;;;5035318;28;20087;-25
2023/03/28 11:56:37;;;;;;;6.43;2.80;;;;;;;;;;5034977;28;20031;-23
2023/03/28 11:59:06;;;;;;;6.45;2.10;;;;;;;;;;5035310;28;20029;-23
2023/03/28 12:01:35;;;;;;;3.38;1.65;;;;;;;;;;5035046;28;20025;-29
2023/03/28 12:04:13;;;;;;;5.10;2.17;;;;;;;;;;5035003;28;20067;-24
2023/03/28 12:06:51;;;;;;;3.67;2.10;;;;;;;;;;5011071;28;20038;-22
2023/03/28 12:09:29;;;;;;;9.98;2.15;;;;;;;;;;4995574;28;20037;-24
2023/03/28 12:11:58;;;;;;;10.10;3.80;;;;;;;;;;5010738;28;20130;-23
2023/03/28 12:14:43;;;;;;;12.88;2.50;;;;;;;;;;4995372;28;20034;-23
2023/03/28 12:17:20;;;;;;;5.10;2.03;;;;;;;;;;4996048;28;20411;-26
2023/03/28 12:19:47;;;;;;;7.00;2.25;;;;;;;;;;4995877;28;20463;-23
2023/03/28 12:22:20;;;;;;;8.48;2.20;;;;;;;;;;4995635;28;20030;-24
2023/03/28 12:25:04;;;;;;;7.90;2.10;;;;;;;;;;4995829;28;20109;-23
2023/03/28 12:27:51;;;;;;;5.72;2.10;;;;;;;;;;4995271;28;20560;-28
2023/03/28 12:30:20;;;;;;;11.15;2.95;;;;;;;;;;4988251;28;20433;-24
2023/03/28 12:33:05;;;;;;;9.65;2.38;;;;;;;;;;5010836;28;20041;-24
2023/03/28 12:35:50;;;;;;;6.40;2.05;;;;;;;;;;4995583;28;20346;-26
2023/03/28 12:38:19;;;;;;;6.70;2.30;;;;;;;;;;4995221;28;20045;-28
2023/03/28 12:40:53;;;;;;;22.58;3.60;;;;;;;;;;4995029;28;20030;-27
2023/03/28 12:43:22;;;;;;;7.53;2.40;;;;;;;;;;4994962;28;20030;-25
2023/03/28 12:45:52;;;;;;;10.93;2.47;;;;;;;;;;4995298;28;20064;-28
2023/03/28 12:48:30;;;;;;;14.52;3.28;;;;;;;;;;4995256;28;20073;-27
2023/03/28 12:50:59;;;;;;;9.77;2.50;;;;;;;;;;4995204;28;20027;-25
2023/03/28 12:53:26;;;;;;;6.88;2.47;;;;;;;;;;4994962;28;20505;-27
2023/03/28 12:55:52;;;;;;;11.20;2.53;;;;;;;;;;4994850;28;20030;-24
2023/03/28 12:58:21;;;;;;;4.55;2.40;;;;;;;;;;4995531;28;20026;-23
2023/03/28 13:00:57;;;;;;;4.20;2.10;;;;;;;;;;4994945;28;20026;-23
2023/03/28 13:03:33;;;;;;;7.40;2.50;;;;;;;;;;4994839;28;20050;-25
2023/03/28 13:06:09;;;;;;;8.68;2.30;;;;;;;;;;5024113;28;20045;-24
2023/03/28 13:08:35;;;;;;;11.25;2.53;;;;;;;;;;5034591;28;20025;-26
2023/03/28 13:11:18;;;;;;;9.40;3.03;;;;;;;;;;5034133;28;20033;-22
2023/03/28 13:13:45;;;;;;;5.78;2.05;;;;;;;;;;5034222;28;20126;-23
2023/03/28 13:16:15;;;;;;;11.18;3.85;;;;;;;;;;5034135;28;20100;-23
2023/03/28 13:18:49;;;;;;;7.03;1.90;;;;;;;;;;5034325;28;20052;-23
2023/03/28 13:21:33;;;;;;;5.72;3.42;;;;;;;;;;5033987;28;20091;-27
2023/03/28 13:23:59;;;;;;;7.38;2.13;;;;;;;;;;5016561;28;20057;-27
2023/03/28 13:26:26;;;;;;;5.90;2.05;;;;;;;;;;5033872;28;20522;-25
2023/03/28 13:28:58;;;;;;;3.58;2.28;;;;;;;;;;5033899;28;20022;-23
2023/03/28 13:31:25;;;;;;;2.97;2.10;;;;;;;;;;5016389;28;20033;-25
2023/03/28 13:33:57;;;;;;;7.18;2.55;;;;;;;;;;5033844;28;20033;-24
2023/03/28 13:36:35;;;;;;;5.97;2.00;;;;;;;;;;5034016;28;20037;-23
2023/03/28 13:39:06;;;;;;;9.10;2.30;;;;;;;;;;5033999;28;20466;-23
2023/03/28 13:41:35;;;;;;;5.93;2.70;;;;;;;;;;5034141;28;20029;-23
2023/03/28 13:44:03;;;;;;;6.25;2.38;;;;;;;;;;5033625;28;20057;-24
2023/03/28 13:46:40;;;;;;;12.00;3.90;;;;;;;;;;5033803;28;20029;-23
2023/03/28 13:49:15;;;;;;;11.13;2.40;;;;;;;;;;5016604;28;20464;-23
2023/03/28 13:51:47;;;;;;;11.65;2.30;;;;;;;;;;5019917;28;20459;-25
2023/03/28 13:54:14;;;;;;;11.07;3.08;;;;;;;;;;5038140;28;20037;-24
2023/03/28 13:56:43;;;;;;;9.90;2.45;;;;;;;;;;5037540;28;20108;-24
2023/03/28 13:59:17;;;;;;;8.60;2.40;;;;;;;;;;5037232;28;20124;-23
2023/03/28 14:01:52;;;;;;;8.02;2.60;;;;;;;;;;5037471;28;20026;-23
2023/03/28 14:04:20;;;;;;;6.97;2.00;;;;;;;;;;5037684;28;20036;-26
2023/03/28 14:06:46;;;;;;;10.20;2.88;;;;;;;;;;5037475;28;20030;-25
2023/03/28 14:09:14;;;;;;;11.43;2.22;;;;;;;;;;5019718;28;20452;-23
2023/03/28 14:11:41;;;;;;;21.73;2.60;;;;;;;;;;5037020;28;20049;-28
2023/03/28 14:14:12;;;;;;;5.65;2.08;;;;;;;;;;5036955;28;20368;-26
2023/03/28 14:16:38;;;;;;;8.38;2.22;;;;;;;;;;5037607;28;20083;-26
2023/03/28 14:19:05;;;;;;;13.10;2.10;;;;;;;;;;5037069;28;20360;-25
2023/03/28 14:21:32;;;;;;;5.22;2.20;;;;;;;;;;5037148;28;20047;-24
2023/03/28 14:23:59;;;;;;;6.07;2.95;;;;;;;;;;5037093;28;20041;-24
2023/03/28 14:26:27;;;;;;;5.60;2.70;;;;;;;;;;5036839;28;20021;-23
2023/03/28 14:28:58;;;;;;;11.10;2.20;;;;;;;;;;5036852;28;20025;-33
2023/03/28 14:31:39;;;;;;;2.80;1.90;;;;;;;;;;5037421;28;20100;-23
2023/03/28 14:34:17;;;;;;;7.05;2.60;;;;;;;;;;5036810;28;20091;-24
2023/03/28 14:36:56;;;;;;;13.48;2.90;;;;;;;;;;5036753;28;20037;-23
2023/03/28 14:39:23;;;;;;;25.50;3.30;;;;;;;;;;5036606;28;20025;-23
2023/03/28 14:41:49;;;;;;;5.47;2.13;;;;;;;;;;5036605;28;20356;-23
2023/03/28 14:44:15;;;;;;;5.82;2.40;;;;;;;;;;5036779;28;20026;-28
2023/03/28 14:46:42;;;;;;;8.43;3.20;;;;;;;;;;5036550;28;20021;-26
2023/03/28 14:49:14;;;;;;;2.97;1.90;;;;;;;;;;5036452;28;20096;-27
2023/03/28 14:51:41;;;;;;;9.40;2.53;;;;;;;;;;5036983;28;20025;-23
2023/03/28 14:54:15;;;;;;;10.63;1.95;;;;;;;;;;5018917;28;20026;-23
2023/03/28 14:56:42;;;;;;;7.35;2.75;;;;;;;;;;5036657;28;20040;-25
2023/03/28 14:59:11;;;;;;;8.93;2.28;;;;;;;;;;5036296;28;20021;-26